createdAt,value
2023-04-15T00:00:54.000Z,6.92
2023-04-15T00:01:59.000Z,6.92
2023-04-15T00:03:03.000Z,6.91
2023-04-15T00:04:07.000Z,6.91
2023-04-15T00:05:11.000Z,6.92
2023-04-15T00:06:15.000Z,6.91
2023-04-15T00:07:19.000Z,6.89
2023-04-15T00:08:23.000Z,6.91
2023-04-15T00:09:28.000Z,6.91
2023-04-15T00:10:32.000Z,6.91
2023-04-15T00:11:36.000Z,6.91
2023-04-15T00:12:40.000Z,6.91
2023-04-15T00:13:44.000Z,6.91
2023-04-15T00:14:48.000Z,6.92
2023-04-15T00:15:53.000Z,6.89
2023-04-15T00:16:57.000Z,6.89
2023-04-15T00:18:01.000Z,6.93
2023-04-15T00:19:05.000Z,6.92
2023-04-15T00:20:10.000Z,6.92
2023-04-15T00:21:14.000Z,6.91
2023-04-15T00:22:18.000Z,6.88
2023-04-15T00:23:22.000Z,6.89
2023-04-15T00:24:26.000Z,6.86
2023-04-15T00:25:31.000Z,6.89
2023-04-15T00:26:35.000Z,6.89
2023-04-15T00:27:39.000Z,6.86
2023-04-15T00:28:43.000Z,6.86
2023-04-15T00:29:47.000Z,6.83
2023-04-15T00:30:51.000Z,6.82
2023-04-15T00:31:56.000Z,6.82
2023-04-15T00:33:00.000Z,6.82
2023-04-15T00:34:04.000Z,6.83
2023-04-15T00:35:08.000Z,6.85
2023-04-15T00:36:13.000Z,6.83
2023-04-15T00:37:17.000Z,6.88
2023-04-15T00:38:21.000Z,6.83
2023-04-15T00:39:26.000Z,6.82
2023-04-15T00:40:30.000Z,6.83
2023-04-15T00:41:34.000Z,6.82
2023-04-15T00:42:38.000Z,6.85
2023-04-15T00:43:42.000Z,6.85
2023-04-15T00:44:47.000Z,6.86
2023-04-15T00:45:51.000Z,6.88
2023-04-15T00:46:55.000Z,6.85
2023-04-15T00:47:59.000Z,6.88
2023-04-15T00:49:04.000Z,6.85
2023-04-15T00:50:08.000Z,6.82
2023-04-15T00:51:13.000Z,6.83
2023-04-15T00:52:17.000Z,6.82
2023-04-15T00:53:21.000Z,6.85
2023-04-15T00:54:25.000Z,6.85
2023-04-15T00:55:30.000Z,6.82
2023-04-15T00:56:34.000Z,6.82
2023-04-15T00:57:38.000Z,6.83
2023-04-15T00:58:43.000Z,6.82
2023-04-15T00:59:47.000Z,6.82
2023-04-15T01:00:51.000Z,6.79
2023-04-15T01:01:56.000Z,6.74
2023-04-15T01:03:00.000Z,6.85
2023-04-15T01:04:04.000Z,6.85
2023-04-15T01:05:08.000Z,6.82
2023-04-15T01:06:13.000Z,6.82
2023-04-15T01:07:17.000Z,6.83
2023-04-15T01:08:21.000Z,6.79
2023-04-15T01:09:26.000Z,6.78
2023-04-15T01:10:31.000Z,6.81
2023-04-15T01:11:35.000Z,6.78
2023-04-15T01:12:39.000Z,6.81
2023-04-15T01:13:44.000Z,6.78
2023-04-15T01:14:48.000Z,6.74
2023-04-15T01:15:52.000Z,6.78
2023-04-15T01:16:57.000Z,6.75
2023-04-15T01:18:01.000Z,6.78
2023-04-15T01:19:06.000Z,6.75
2023-04-15T01:20:10.000Z,6.75
2023-04-15T01:21:14.000Z,6.75
2023-04-15T01:22:19.000Z,6.75
2023-04-15T01:23:23.000Z,6.75
2023-04-15T01:24:27.000Z,6.73
2023-04-15T01:25:32.000Z,6.73
2023-04-15T01:26:36.000Z,6.73
2023-04-15T01:27:41.000Z,6.74
2023-04-15T01:28:45.000Z,6.74
2023-04-15T01:29:50.000Z,6.73
2023-04-15T01:30:54.000Z,6.74
2023-04-15T01:31:58.000Z,6.74
2023-04-15T01:33:02.000Z,6.78
2023-04-15T01:34:07.000Z,6.78
2023-04-15T01:35:11.000Z,6.79
2023-04-15T01:36:15.000Z,6.75
2023-04-15T01:37:20.000Z,6.78
2023-04-15T01:38:24.000Z,6.79
2023-04-15T01:39:28.000Z,6.75
2023-04-15T01:40:32.000Z,6.74
2023-04-15T01:41:37.000Z,6.75
2023-04-15T01:42:41.000Z,6.78
2023-04-15T01:43:45.000Z,6.74
2023-04-15T01:44:49.000Z,6.74
2023-04-15T01:45:53.000Z,6.74
2023-04-15T01:46:58.000Z,6.74
2023-04-15T01:48:02.000Z,6.73
2023-04-15T01:49:06.000Z,6.75
2023-04-15T01:50:16.000Z,6.75
2023-04-15T01:51:20.000Z,6.79
2023-04-15T01:52:24.000Z,6.79
2023-04-15T01:53:29.000Z,6.78
2023-04-15T01:54:33.000Z,6.75
2023-04-15T01:55:37.000Z,6.73
2023-04-15T01:56:42.000Z,6.75
2023-04-15T01:57:46.000Z,6.81
2023-04-15T01:58:50.000Z,6.75
2023-04-15T01:59:54.000Z,6.78
2023-04-15T02:00:58.000Z,6.75
2023-04-15T02:02:03.000Z,6.73
2023-04-15T02:03:07.000Z,6.71
2023-04-15T02:04:11.000Z,6.73
2023-04-15T02:05:15.000Z,6.74
2023-04-15T02:06:20.000Z,6.7
2023-04-15T02:07:24.000Z,6.71
2023-04-15T02:08:28.000Z,6.75
2023-04-15T02:09:33.000Z,6.75
2023-04-15T02:10:37.000Z,6.75
2023-04-15T02:11:41.000Z,6.78
2023-04-15T02:12:46.000Z,6.74
2023-04-15T02:13:50.000Z,6.75
2023-04-15T02:14:54.000Z,6.73
2023-04-15T02:16:00.000Z,6.74
2023-04-15T02:17:04.000Z,6.73
2023-04-15T02:18:08.000Z,6.71
2023-04-15T02:19:13.000Z,6.73
2023-04-15T02:20:17.000Z,6.7
2023-04-15T02:21:21.000Z,6.71
2023-04-15T02:22:26.000Z,6.73
2023-04-15T02:23:30.000Z,6.7
2023-04-15T02:24:34.000Z,6.7
2023-04-15T02:25:39.000Z,6.7
2023-04-15T02:26:43.000Z,6.68
2023-04-15T02:27:47.000Z,6.68
2023-04-15T02:28:52.000Z,6.67
2023-04-15T02:29:56.000Z,6.64
2023-04-15T02:31:00.000Z,6.65
2023-04-15T02:32:04.000Z,6.64
2023-04-15T02:33:09.000Z,6.67
2023-04-15T02:34:13.000Z,6.65
2023-04-15T02:35:17.000Z,6.68
2023-04-15T02:36:21.000Z,6.65
2023-04-15T02:37:25.000Z,6.67
2023-04-15T02:38:30.000Z,6.68
2023-04-15T02:39:34.000Z,6.68
2023-04-15T02:40:38.000Z,6.65
2023-04-15T02:41:42.000Z,6.67
2023-04-15T02:42:46.000Z,6.63
2023-04-15T02:43:51.000Z,6.61
2023-04-15T02:44:55.000Z,6.57
2023-04-15T02:45:59.000Z,6.61
2023-04-15T02:47:03.000Z,6.63
2023-04-15T02:48:07.000Z,6.64
2023-04-15T02:49:12.000Z,6.65
2023-04-15T02:50:16.000Z,6.64
2023-04-15T02:51:20.000Z,6.65
2023-04-15T02:52:24.000Z,6.63
2023-04-15T02:53:33.000Z,6.63
2023-04-15T02:54:37.000Z,6.63
2023-04-15T02:55:42.000Z,6.65
2023-04-15T02:56:46.000Z,6.64
2023-04-15T02:57:50.000Z,6.63
2023-04-15T02:58:55.000Z,6.61
2023-04-15T02:59:59.000Z,6.63
2023-04-15T03:01:03.000Z,6.63
2023-04-15T03:02:08.000Z,6.63
2023-04-15T03:03:12.000Z,6.63
2023-04-15T03:04:16.000Z,6.67
2023-04-15T03:05:20.000Z,6.63
2023-04-15T03:06:25.000Z,6.6
2023-04-15T03:07:29.000Z,6.61
2023-04-15T03:08:33.000Z,6.6
2023-04-15T03:09:38.000Z,6.6
2023-04-15T03:10:42.000Z,6.57
2023-04-15T03:11:46.000Z,6.57
2023-04-15T03:12:50.000Z,6.57
2023-04-15T03:13:55.000Z,6.56
2023-04-15T03:14:59.000Z,6.57
2023-04-15T03:16:03.000Z,6.6
2023-04-15T03:17:07.000Z,6.63
2023-04-15T03:18:12.000Z,6.64
2023-04-15T03:19:16.000Z,6.64
2023-04-15T03:20:20.000Z,6.61
2023-04-15T03:21:24.000Z,6.6
2023-04-15T03:22:29.000Z,6.6
2023-04-15T03:23:33.000Z,6.6
2023-04-15T03:24:37.000Z,6.6
2023-04-15T03:25:42.000Z,6.61
2023-04-15T03:26:46.000Z,6.61
2023-04-15T03:27:50.000Z,6.57
2023-04-15T03:28:54.000Z,6.57
2023-04-15T03:29:59.000Z,6.6
2023-04-15T03:31:03.000Z,6.63
2023-04-15T03:32:07.000Z,6.63
2023-04-15T03:33:11.000Z,6.61
2023-04-15T03:34:15.000Z,6.55
2023-04-15T03:35:20.000Z,6.6
2023-04-15T03:36:24.000Z,6.6
2023-04-15T03:37:28.000Z,6.6
2023-04-15T03:38:32.000Z,6.6
2023-04-15T03:39:37.000Z,6.57
2023-04-15T03:40:41.000Z,6.64
2023-04-15T03:41:45.000Z,6.6
2023-04-15T03:42:50.000Z,6.6
2023-04-15T03:43:54.000Z,6.61
2023-04-15T03:44:58.000Z,6.61
2023-04-15T03:46:02.000Z,6.6
2023-04-15T03:47:06.000Z,6.6
2023-04-15T03:48:11.000Z,6.57
2023-04-15T03:49:15.000Z,6.57
2023-04-15T03:50:19.000Z,6.61
2023-04-15T03:51:24.000Z,6.63
2023-04-15T03:52:28.000Z,6.61
2023-04-15T03:53:32.000Z,6.61
2023-04-15T03:54:36.000Z,6.63
2023-04-15T03:55:41.000Z,6.57
2023-04-15T03:56:50.000Z,6.57
2023-04-15T03:57:54.000Z,6.61
2023-04-15T03:58:58.000Z,6.63
2023-04-15T04:00:02.000Z,6.61
2023-04-15T04:01:06.000Z,6.61
2023-04-15T04:02:11.000Z,6.61
2023-04-15T04:03:15.000Z,6.61
2023-04-15T04:04:19.000Z,6.61
2023-04-15T04:05:23.000Z,6.61
2023-04-15T04:06:27.000Z,6.6
2023-04-15T04:07:32.000Z,6.61
2023-04-15T04:08:36.000Z,6.63
2023-04-15T04:09:40.000Z,6.63
2023-04-15T04:10:44.000Z,6.63
2023-04-15T04:11:48.000Z,6.57
2023-04-15T04:12:53.000Z,6.61
2023-04-15T04:13:57.000Z,6.61
2023-04-15T04:15:01.000Z,6.63
2023-04-15T04:16:06.000Z,6.61
2023-04-15T04:17:10.000Z,6.64
2023-04-15T04:18:14.000Z,6.63
2023-04-15T04:19:18.000Z,6.61
2023-04-15T04:20:23.000Z,6.64
2023-04-15T04:21:27.000Z,6.64
2023-04-15T04:22:31.000Z,6.65
2023-04-15T04:23:36.000Z,6.63
2023-04-15T04:24:40.000Z,6.61
2023-04-15T04:25:44.000Z,6.63
2023-04-15T04:26:48.000Z,6.64
2023-04-15T04:27:52.000Z,6.61
2023-04-15T04:28:57.000Z,6.64
2023-04-15T04:30:01.000Z,6.63
2023-04-15T04:31:10.000Z,6.64
2023-04-15T04:32:14.000Z,6.65
2023-04-15T04:33:19.000Z,6.67
2023-04-15T04:34:23.000Z,6.68
2023-04-15T04:35:27.000Z,6.67
2023-04-15T04:36:31.000Z,6.68
2023-04-15T04:37:42.000Z,6.67
2023-04-15T04:38:46.000Z,6.7
2023-04-15T04:39:50.000Z,6.68
2023-04-15T04:40:54.000Z,6.65
2023-04-15T04:41:58.000Z,6.64
2023-04-15T04:43:03.000Z,6.67
2023-04-15T04:44:07.000Z,6.65
2023-04-15T04:45:11.000Z,6.65
2023-04-15T04:46:15.000Z,6.65
2023-04-15T04:47:20.000Z,6.7
2023-04-15T04:48:24.000Z,6.68
2023-04-15T04:49:28.000Z,6.6
2023-04-15T04:50:32.000Z,6.67
2023-04-15T04:51:36.000Z,6.7
2023-04-15T04:52:41.000Z,6.7
2023-04-15T04:53:45.000Z,6.7
2023-04-15T04:54:49.000Z,6.73
2023-04-15T04:55:54.000Z,6.71
2023-04-15T04:56:58.000Z,6.68
2023-04-15T04:58:07.000Z,6.68
2023-04-15T04:59:12.000Z,6.71
2023-04-15T05:00:16.000Z,6.7
2023-04-15T05:01:20.000Z,6.68
2023-04-15T05:02:24.000Z,6.65
2023-04-15T05:03:28.000Z,6.71
2023-04-15T05:04:33.000Z,6.7
2023-04-15T05:05:37.000Z,6.7
2023-04-15T05:06:41.000Z,6.71
2023-04-15T05:07:45.000Z,6.73
2023-04-15T05:08:50.000Z,6.73
2023-04-15T05:09:54.000Z,6.71
2023-04-15T05:10:58.000Z,6.71
2023-04-15T05:12:03.000Z,6.73
2023-04-15T05:13:07.000Z,6.73
2023-04-15T05:14:11.000Z,6.74
2023-04-15T05:15:16.000Z,6.73
2023-04-15T05:16:20.000Z,6.73
2023-04-15T05:17:24.000Z,6.74
2023-04-15T05:18:28.000Z,6.75
2023-04-15T05:19:37.000Z,6.75
2023-04-15T05:20:42.000Z,6.75
2023-04-15T05:21:46.000Z,6.74
2023-04-15T05:22:50.000Z,6.75
2023-04-15T05:23:55.000Z,6.75
2023-04-15T05:24:59.000Z,6.79
2023-04-15T05:26:03.000Z,6.81
2023-04-15T05:27:07.000Z,6.86
2023-04-15T05:28:12.000Z,6.83
2023-04-15T05:29:16.000Z,6.85
2023-04-15T05:30:20.000Z,6.82
2023-04-15T05:31:25.000Z,6.81
2023-04-15T05:32:29.000Z,6.82
2023-04-15T05:33:33.000Z,6.83
2023-04-15T05:34:38.000Z,6.85
2023-04-15T05:35:42.000Z,6.82
2023-04-15T05:36:46.000Z,6.82
2023-04-15T05:37:51.000Z,6.83
2023-04-15T05:38:56.000Z,6.85
2023-04-15T05:40:00.000Z,6.85
2023-04-15T05:41:04.000Z,6.86
2023-04-15T05:42:08.000Z,6.88
2023-04-15T05:43:13.000Z,6.89
2023-04-15T05:44:17.000Z,6.88
2023-04-15T05:45:21.000Z,6.88
2023-04-15T05:46:25.000Z,6.86
2023-04-15T05:47:29.000Z,6.85
2023-04-15T05:48:34.000Z,6.85
2023-04-15T05:49:38.000Z,6.85
2023-04-15T05:50:42.000Z,6.86
2023-04-15T05:51:46.000Z,6.83
2023-04-15T05:52:51.000Z,6.83
2023-04-15T05:53:55.000Z,6.85
2023-04-15T05:54:59.000Z,6.83
2023-04-15T05:56:03.000Z,6.83
2023-04-15T05:57:08.000Z,6.85
2023-04-15T05:58:12.000Z,6.82
2023-04-15T05:59:16.000Z,6.86
2023-04-15T06:00:21.000Z,6.88
2023-04-15T06:01:25.000Z,6.88
2023-04-15T06:02:29.000Z,6.89
2023-04-15T06:03:33.000Z,6.92
2023-04-15T06:04:37.000Z,6.93
2023-04-15T06:05:42.000Z,6.91
2023-04-15T06:06:47.000Z,6.88
2023-04-15T06:07:56.000Z,6.91
2023-04-15T06:09:01.000Z,6.92
2023-04-15T06:10:05.000Z,6.93
2023-04-15T06:11:09.000Z,6.91
2023-04-15T06:12:18.000Z,6.93
2023-04-15T06:13:23.000Z,6.96
2023-04-15T06:14:27.000Z,6.91
2023-04-15T06:15:31.000Z,6.93
2023-04-15T06:16:35.000Z,6.97
2023-04-15T06:17:39.000Z,7.0
2023-04-15T06:18:44.000Z,7.0
2023-04-15T06:19:48.000Z,7.0
2023-04-15T06:20:52.000Z,7.0
2023-04-15T06:21:56.000Z,7.0
2023-04-15T06:23:00.000Z,7.0
2023-04-15T06:24:05.000Z,7.01
2023-04-15T06:25:09.000Z,7.03
2023-04-15T06:26:14.000Z,7.04
2023-04-15T06:27:18.000Z,7.03
2023-04-15T06:28:22.000Z,7.03
2023-04-15T06:29:26.000Z,7.06
2023-04-15T06:30:31.000Z,7.01
2023-04-15T06:31:35.000Z,7.04
2023-04-15T06:32:40.000Z,7.08
2023-04-15T06:33:45.000Z,7.07
2023-04-15T06:34:49.000Z,7.1
2023-04-15T06:35:53.000Z,7.11
2023-04-15T06:36:57.000Z,7.08
2023-04-15T06:38:02.000Z,7.07
2023-04-15T06:39:06.000Z,7.1
2023-04-15T06:40:10.000Z,7.11
2023-04-15T06:41:14.000Z,7.1
2023-04-15T06:42:18.000Z,7.11
2023-04-15T06:43:23.000Z,7.1
2023-04-15T06:44:27.000Z,7.15
2023-04-15T06:45:31.000Z,7.15
2023-04-15T06:46:36.000Z,7.16
2023-04-15T06:47:40.000Z,7.18
2023-04-15T06:48:44.000Z,7.15
2023-04-15T06:49:49.000Z,7.16
2023-04-15T06:50:53.000Z,7.16
2023-04-15T06:51:57.000Z,7.18
2023-04-15T06:53:02.000Z,7.18
2023-04-15T06:54:06.000Z,7.15
2023-04-15T06:55:10.000Z,7.16
2023-04-15T06:56:15.000Z,7.16
2023-04-15T06:57:19.000Z,7.19
2023-04-15T06:58:23.000Z,7.19
2023-04-15T06:59:28.000Z,7.16
2023-04-15T07:00:32.000Z,7.21
2023-04-15T07:01:36.000Z,7.18
2023-04-15T07:02:40.000Z,7.22
2023-04-15T07:03:45.000Z,7.22
2023-04-15T07:04:49.000Z,7.24
2023-04-15T07:05:54.000Z,7.21
2023-04-15T07:06:58.000Z,7.22
2023-04-15T07:08:02.000Z,7.25
2023-04-15T07:09:06.000Z,7.26
2023-04-15T07:10:11.000Z,7.26
2023-04-15T07:11:15.000Z,7.31
2023-04-15T07:12:19.000Z,7.33
2023-04-15T07:13:23.000Z,7.29
2023-04-15T07:14:28.000Z,7.29
2023-04-15T07:15:32.000Z,7.34
2023-04-15T07:16:37.000Z,7.36
2023-04-15T07:17:41.000Z,7.37
2023-04-15T07:18:45.000Z,7.36
2023-04-15T07:19:50.000Z,7.44
2023-04-15T07:20:54.000Z,7.4
2023-04-15T07:21:58.000Z,7.37
2023-04-15T07:23:03.000Z,7.43
2023-04-15T07:24:07.000Z,7.44
2023-04-15T07:25:11.000Z,7.49
2023-04-15T07:26:15.000Z,7.47
2023-04-15T07:27:20.000Z,7.5
2023-04-15T07:28:24.000Z,7.54
2023-04-15T07:29:28.000Z,7.55
2023-04-15T07:30:32.000Z,7.52
2023-04-15T07:31:36.000Z,7.49
2023-04-15T07:32:41.000Z,7.49
2023-04-15T07:33:45.000Z,7.44
2023-04-15T07:34:50.000Z,7.44
2023-04-15T07:35:54.000Z,7.43
2023-04-15T07:36:58.000Z,7.47
2023-04-15T07:38:02.000Z,7.49
2023-04-15T07:39:07.000Z,7.52
2023-04-15T07:40:11.000Z,7.49
2023-04-15T07:41:15.000Z,7.44
2023-04-15T07:42:20.000Z,7.47
2023-04-15T07:43:24.000Z,7.47
2023-04-15T07:44:28.000Z,7.49
2023-04-15T07:45:32.000Z,7.5
2023-04-15T07:46:36.000Z,7.55
2023-04-15T07:47:41.000Z,7.5
2023-04-15T07:48:45.000Z,7.47
2023-04-15T07:49:49.000Z,7.46
2023-04-15T07:50:54.000Z,7.5
2023-04-15T07:51:58.000Z,7.52
2023-04-15T07:53:03.000Z,7.58
2023-04-15T07:54:07.000Z,7.58
2023-04-15T07:55:16.000Z,7.57
2023-04-15T07:56:20.000Z,7.61
2023-04-15T07:57:25.000Z,7.6
2023-04-15T07:58:29.000Z,7.68
2023-04-15T07:59:33.000Z,7.61
2023-04-15T08:00:38.000Z,7.6
2023-04-15T08:01:42.000Z,7.66
2023-04-15T08:02:46.000Z,7.69
2023-04-15T08:03:51.000Z,7.64
2023-04-15T08:04:55.000Z,7.68
2023-04-15T08:06:00.000Z,7.73
2023-04-15T08:07:04.000Z,7.76
2023-04-15T08:08:08.000Z,7.73
2023-04-15T08:09:12.000Z,7.76
2023-04-15T08:10:17.000Z,7.71
2023-04-15T08:11:21.000Z,7.76
2023-04-15T08:12:25.000Z,7.77
2023-04-15T08:13:34.000Z,7.84
2023-04-15T08:14:38.000Z,7.95
2023-04-15T08:15:43.000Z,8.04
2023-04-15T08:16:47.000Z,8.12
2023-04-15T08:17:51.000Z,8.14
2023-04-15T08:18:55.000Z,8.12
2023-04-15T08:20:00.000Z,7.99
2023-04-15T08:21:04.000Z,7.96
2023-04-15T08:22:08.000Z,7.96
2023-04-15T08:23:12.000Z,8.02
2023-04-15T08:24:17.000Z,8.09
2023-04-15T08:25:26.000Z,8.14
2023-04-15T08:26:31.000Z,8.14
2023-04-15T08:27:35.000Z,8.19
2023-04-15T08:28:39.000Z,8.16
2023-04-15T08:29:43.000Z,8.19
2023-04-15T08:30:47.000Z,8.17
2023-04-15T08:31:52.000Z,8.17
2023-04-15T08:32:56.000Z,8.17
2023-04-15T08:34:00.000Z,8.21
2023-04-15T08:35:04.000Z,8.24
2023-04-15T08:36:09.000Z,8.29
2023-04-15T08:37:13.000Z,8.32
2023-04-15T08:38:17.000Z,8.37
2023-04-15T08:39:22.000Z,8.39
2023-04-15T08:40:26.000Z,8.38
2023-04-15T08:41:30.000Z,8.46
2023-04-15T08:42:35.000Z,8.41
2023-04-15T08:43:39.000Z,8.41
2023-04-15T08:44:43.000Z,8.31
2023-04-15T08:45:48.000Z,8.32
2023-04-15T08:46:53.000Z,8.31
2023-04-15T08:47:57.000Z,8.19
2023-04-15T08:49:06.000Z,8.21
2023-04-15T08:50:11.000Z,8.31
2023-04-15T08:51:16.000Z,8.35
2023-04-15T08:52:20.000Z,8.41
2023-04-15T08:53:24.000Z,8.49
2023-04-15T08:54:29.000Z,8.47
2023-04-15T08:55:33.000Z,8.42
2023-04-15T08:56:37.000Z,8.37
2023-04-15T08:57:42.000Z,8.38
2023-04-15T08:58:46.000Z,8.34
2023-04-15T08:59:50.000Z,8.32
2023-04-15T09:00:55.000Z,8.31
2023-04-15T09:01:59.000Z,8.35
2023-04-15T09:03:03.000Z,8.38
2023-04-15T09:04:08.000Z,8.37
2023-04-15T09:05:12.000Z,8.32
2023-04-15T09:06:17.000Z,8.37
2023-04-15T09:07:21.000Z,8.46
2023-04-15T09:08:26.000Z,8.41
2023-04-15T09:09:31.000Z,8.41
2023-04-15T09:10:35.000Z,8.46
2023-04-15T09:11:39.000Z,8.55
2023-04-15T09:12:44.000Z,8.52
2023-04-15T09:13:48.000Z,8.53
2023-04-15T09:14:52.000Z,8.57
2023-04-15T09:15:56.000Z,8.55
2023-04-15T09:17:01.000Z,8.52
2023-04-15T09:18:07.000Z,8.56
2023-04-15T09:19:12.000Z,8.53
2023-04-15T09:20:16.000Z,8.53
2023-04-15T09:21:20.000Z,8.5
2023-04-15T09:22:25.000Z,8.53
2023-04-15T09:23:29.000Z,8.62
2023-04-15T09:24:34.000Z,8.62
2023-04-15T09:25:38.000Z,8.71
2023-04-15T09:26:42.000Z,8.77
2023-04-15T09:27:51.000Z,8.67
2023-04-15T09:28:56.000Z,8.67
2023-04-15T09:30:00.000Z,8.75
2023-04-15T09:31:05.000Z,8.72
2023-04-15T09:32:09.000Z,8.75
2023-04-15T09:33:18.000Z,8.68
2023-04-15T09:34:22.000Z,8.68
2023-04-15T09:35:27.000Z,8.67
2023-04-15T09:36:31.000Z,8.68
2023-04-15T09:37:35.000Z,8.78
2023-04-15T09:38:40.000Z,8.81
2023-04-15T09:39:44.000Z,8.81
2023-04-15T09:40:49.000Z,8.9
2023-04-15T09:41:53.000Z,8.96
2023-04-15T09:42:57.000Z,8.96
2023-04-15T09:44:01.000Z,9.01
2023-04-15T09:45:06.000Z,9.04
2023-04-15T09:46:10.000Z,9.12
2023-04-15T09:47:14.000Z,9.16
2023-04-15T09:48:18.000Z,9.29
2023-04-15T09:49:22.000Z,9.33
2023-04-15T09:50:26.000Z,9.22
2023-04-15T09:51:31.000Z,9.26
2023-04-15T09:52:35.000Z,9.32
2023-04-15T09:53:39.000Z,9.29
2023-04-15T09:54:43.000Z,9.29
2023-04-15T09:55:47.000Z,9.4
2023-04-15T09:56:52.000Z,9.34
2023-04-15T09:57:56.000Z,9.36
2023-04-15T09:59:00.000Z,9.33
2023-04-15T10:00:04.000Z,9.32
2023-04-15T10:01:08.000Z,9.36
2023-04-15T10:02:13.000Z,9.41
2023-04-15T10:03:17.000Z,9.42
2023-04-15T10:04:21.000Z,9.32
2023-04-15T10:05:25.000Z,9.36
2023-04-15T10:06:29.000Z,9.36
2023-04-15T10:07:34.000Z,9.36
2023-04-15T10:08:38.000Z,9.41
2023-04-15T10:09:42.000Z,9.36
2023-04-15T10:10:46.000Z,9.34
2023-04-15T10:11:51.000Z,9.27
2023-04-15T10:12:55.000Z,9.27
2023-04-15T10:13:59.000Z,9.27
2023-04-15T10:15:03.000Z,9.22
2023-04-15T10:16:07.000Z,9.19
2023-04-15T10:17:12.000Z,9.23
2023-04-15T10:18:16.000Z,9.19
2023-04-15T10:19:20.000Z,9.22
2023-04-15T10:20:25.000Z,9.24
2023-04-15T10:21:29.000Z,9.27
2023-04-15T10:22:33.000Z,9.3
2023-04-15T10:23:37.000Z,9.27
2023-04-15T10:24:41.000Z,9.26
2023-04-15T10:25:46.000Z,9.26
2023-04-15T10:26:50.000Z,9.26
2023-04-15T10:27:54.000Z,9.22
2023-04-15T10:28:58.000Z,9.15
2023-04-15T10:30:03.000Z,9.16
2023-04-15T10:31:07.000Z,9.26
2023-04-15T10:32:11.000Z,9.22
2023-04-15T10:33:16.000Z,9.23
2023-04-15T10:34:20.000Z,9.24
2023-04-15T10:35:24.000Z,9.23
2023-04-15T10:36:29.000Z,9.27
2023-04-15T10:37:33.000Z,9.33
2023-04-15T10:38:37.000Z,9.36
2023-04-15T10:39:41.000Z,9.44
2023-04-15T10:40:46.000Z,9.47
2023-04-15T10:41:50.000Z,9.33
2023-04-15T10:42:54.000Z,9.3
2023-04-15T10:43:59.000Z,9.36
2023-04-15T10:45:03.000Z,9.4
2023-04-15T10:46:07.000Z,9.42
2023-04-15T10:47:11.000Z,9.45
2023-04-15T10:48:20.000Z,9.45
2023-04-15T10:49:25.000Z,9.48
2023-04-15T10:50:29.000Z,9.5
2023-04-15T10:51:33.000Z,9.52
2023-04-15T10:52:42.000Z,9.5
2023-04-15T10:53:47.000Z,9.52
2023-04-15T10:54:51.000Z,9.57
2023-04-15T10:55:55.000Z,9.55
2023-04-15T10:56:59.000Z,9.57
2023-04-15T10:58:04.000Z,9.59
2023-04-15T10:59:08.000Z,9.55
2023-04-15T11:00:12.000Z,9.52
2023-04-15T11:01:16.000Z,9.55
2023-04-15T11:02:21.000Z,9.6
2023-04-15T11:03:25.000Z,9.65
2023-04-15T11:04:29.000Z,9.65
2023-04-15T11:05:33.000Z,9.69
2023-04-15T11:06:37.000Z,9.7
2023-04-15T11:07:42.000Z,9.75
2023-04-15T11:08:46.000Z,9.77
2023-04-15T11:09:50.000Z,9.78
2023-04-15T11:10:54.000Z,9.78
2023-04-15T11:11:59.000Z,9.81
2023-04-15T11:13:03.000Z,9.81
2023-04-15T11:14:07.000Z,9.87
2023-04-15T11:15:11.000Z,9.9
2023-04-15T11:16:15.000Z,9.91
2023-04-15T11:17:20.000Z,9.9
2023-04-15T11:18:24.000Z,9.99
2023-04-15T11:19:28.000Z,9.96
2023-04-15T11:20:32.000Z,10.02
2023-04-15T11:21:36.000Z,10.09
2023-04-15T11:22:40.000Z,10.14
2023-04-15T11:23:45.000Z,10.14
2023-04-15T11:24:49.000Z,10.06
2023-04-15T11:25:53.000Z,10.09
2023-04-15T11:26:57.000Z,10.18
2023-04-15T11:28:02.000Z,10.28
2023-04-15T11:29:06.000Z,10.41
2023-04-15T11:30:10.000Z,10.42
2023-04-15T11:31:14.000Z,10.39
2023-04-15T11:32:18.000Z,10.39
2023-04-15T11:33:23.000Z,10.42
2023-04-15T11:34:27.000Z,10.39
2023-04-15T11:35:31.000Z,10.36
2023-04-15T11:36:35.000Z,10.38
2023-04-15T11:37:40.000Z,10.45
2023-04-15T11:38:44.000Z,10.57
2023-04-15T11:39:48.000Z,10.65
2023-04-15T11:40:52.000Z,10.55
2023-04-15T11:41:56.000Z,10.42
2023-04-15T11:43:01.000Z,10.45
2023-04-15T11:44:05.000Z,10.41
2023-04-15T11:45:09.000Z,10.38
2023-04-15T11:46:13.000Z,10.46
2023-04-15T11:47:18.000Z,10.45
2023-04-15T11:48:22.000Z,10.46
2023-04-15T11:49:26.000Z,10.45
2023-04-15T11:50:30.000Z,10.43
2023-04-15T11:51:35.000Z,10.46
2023-04-15T11:52:39.000Z,10.49
2023-04-15T11:53:43.000Z,10.43
2023-04-15T11:54:48.000Z,10.41
2023-04-15T11:55:52.000Z,10.38
2023-04-15T11:56:56.000Z,10.28
2023-04-15T11:58:00.000Z,10.27
2023-04-15T11:59:04.000Z,10.21
2023-04-15T12:00:09.000Z,10.24
2023-04-15T12:01:13.000Z,10.28
2023-04-15T12:02:17.000Z,10.35
2023-04-15T12:03:21.000Z,10.35
2023-04-15T12:04:26.000Z,10.31
2023-04-15T12:05:30.000Z,10.35
2023-04-15T12:06:34.000Z,10.36
2023-04-15T12:07:39.000Z,10.34
2023-04-15T12:08:43.000Z,10.24
2023-04-15T12:09:47.000Z,10.24
2023-04-15T12:10:51.000Z,10.18
2023-04-15T12:11:56.000Z,10.2
2023-04-15T12:13:00.000Z,10.28
2023-04-15T12:14:04.000Z,10.36
2023-04-15T12:15:08.000Z,10.38
2023-04-15T12:16:12.000Z,10.35
2023-04-15T12:17:16.000Z,10.28
2023-04-15T12:18:21.000Z,10.28
2023-04-15T12:19:25.000Z,10.3
2023-04-15T12:20:29.000Z,10.36
2023-04-15T12:21:33.000Z,10.28
2023-04-15T12:22:38.000Z,10.3
2023-04-15T12:23:42.000Z,10.36
2023-04-15T12:24:46.000Z,10.34
2023-04-15T12:25:50.000Z,10.43
2023-04-15T12:26:54.000Z,10.48
2023-04-15T12:27:59.000Z,10.57
2023-04-15T12:29:03.000Z,10.57
2023-04-15T12:30:07.000Z,10.61
2023-04-15T12:31:11.000Z,10.67
2023-04-15T12:32:16.000Z,10.65
2023-04-15T12:33:20.000Z,10.75
2023-04-15T12:34:24.000Z,10.73
2023-04-15T12:35:29.000Z,10.58
2023-04-15T12:36:33.000Z,10.42
2023-04-15T12:37:37.000Z,10.54
2023-04-15T12:38:41.000Z,10.54
2023-04-15T12:39:45.000Z,10.58
2023-04-15T12:40:49.000Z,10.62
2023-04-15T12:41:53.000Z,10.57
2023-04-15T12:42:58.000Z,10.65
2023-04-15T12:44:02.000Z,10.62
2023-04-15T12:45:06.000Z,10.65
2023-04-15T12:46:10.000Z,10.72
2023-04-15T12:47:14.000Z,10.79
2023-04-15T12:48:19.000Z,10.95
2023-04-15T12:49:23.000Z,10.8
2023-04-15T12:50:27.000Z,10.93
2023-04-15T12:51:32.000Z,11.05
2023-04-15T12:52:36.000Z,11.16
2023-04-15T12:53:40.000Z,11.2
2023-04-15T12:54:44.000Z,11.09
2023-04-15T12:55:48.000Z,11.05
2023-04-15T12:56:53.000Z,11.01
2023-04-15T12:57:57.000Z,10.95
2023-04-15T12:59:01.000Z,10.95
2023-04-15T13:00:06.000Z,10.79
2023-04-15T13:01:10.000Z,10.79
2023-04-15T13:02:14.000Z,11.0
2023-04-15T13:03:18.000Z,10.98
2023-04-15T13:04:27.000Z,10.87
2023-04-15T13:05:32.000Z,10.79
2023-04-15T13:06:36.000Z,10.87
2023-04-15T13:07:40.000Z,10.93
2023-04-15T13:08:49.000Z,10.98
2023-04-15T13:09:53.000Z,10.98
2023-04-15T13:10:58.000Z,10.93
2023-04-15T13:12:02.000Z,10.85
2023-04-15T13:13:06.000Z,10.97
2023-04-15T13:14:10.000Z,10.98
2023-04-15T13:15:15.000Z,11.11
2023-04-15T13:16:19.000Z,11.23
2023-04-15T13:17:24.000Z,11.23
2023-04-15T13:18:28.000Z,11.2
2023-04-15T13:19:32.000Z,11.33
2023-04-15T13:20:36.000Z,11.3
2023-04-15T13:21:41.000Z,11.31
2023-04-15T13:22:45.000Z,11.31
2023-04-15T13:23:49.000Z,11.4
2023-04-15T13:24:53.000Z,11.54
2023-04-15T13:25:57.000Z,11.54
2023-04-15T13:27:01.000Z,11.52
2023-04-15T13:28:05.000Z,11.48
2023-04-15T13:29:09.000Z,11.31
2023-04-15T13:30:15.000Z,11.22
2023-04-15T13:31:19.000Z,11.37
2023-04-15T13:32:24.000Z,11.43
2023-04-15T13:33:28.000Z,11.41
2023-04-15T13:34:32.000Z,11.22
2023-04-15T13:35:36.000Z,11.27
2023-04-15T13:36:40.000Z,11.13
2023-04-15T13:37:44.000Z,11.05
2023-04-15T13:38:48.000Z,11.01
2023-04-15T13:39:53.000Z,11.2
2023-04-15T13:40:57.000Z,11.23
2023-04-15T13:42:01.000Z,11.3
2023-04-15T13:43:05.000Z,11.25
2023-04-15T13:44:09.000Z,11.11
2023-04-15T13:45:13.000Z,11.13
2023-04-15T13:46:17.000Z,11.12
2023-04-15T13:47:22.000Z,11.08
2023-04-15T13:48:26.000Z,10.93
2023-04-15T13:49:30.000Z,10.86
2023-04-15T13:50:34.000Z,10.79
2023-04-15T13:51:38.000Z,10.75
2023-04-15T13:52:43.000Z,10.76
2023-04-15T13:53:47.000Z,10.78
2023-04-15T13:54:51.000Z,10.83
2023-04-15T13:55:55.000Z,10.73
2023-04-15T13:56:59.000Z,10.64
2023-04-15T13:58:03.000Z,10.6
2023-04-15T13:59:07.000Z,10.64
2023-04-15T14:00:11.000Z,10.73
2023-04-15T14:01:15.000Z,10.8
2023-04-15T14:02:19.000Z,10.85
2023-04-15T14:03:23.000Z,10.93
2023-04-15T14:04:28.000Z,11.13
2023-04-15T14:05:32.000Z,11.12
2023-04-15T14:06:36.000Z,11.37
2023-04-15T14:07:40.000Z,11.34
2023-04-15T14:08:44.000Z,11.33
2023-04-15T14:09:48.000Z,11.12
2023-04-15T14:10:52.000Z,11.12
2023-04-15T14:11:56.000Z,11.04
2023-04-15T14:13:00.000Z,11.12
2023-04-15T14:14:04.000Z,11.05